Latest Weather Observations for Laverton

IDW60801

Issued at 6:05 pm WST Friday 1 August 2014 (issued every 30 minutes, with the page automatically refreshed every 10 minutes)

About weather observations | Map of weather stations | Latest weather observations for WA | Other Formats
Station Details ID: 012305 Name: LAVERTON AERO Lat: -28.61 Lon: 122.42 Height: 464.3 m
Data from the previous 72 hours. | See also: Recent months at Laverton
Date/Time
WST
Temp
°C
App
Temp
°C
Dew
Point
Rel
Hum
%
Delta-T
°C
Wind Press
QNH
hPa
Press
MSL
hPa
Rain
since 9 am
mm
Dir
 
Spd
km/h
Gust
km/h
Spd
kts
Gust
kts
01/06:00pm 12.2 8.0 -1.0 40 5.4 E 11 13 6 7 1026.4 1025.9 0.0
01/05:30pm 13.9 9.0 -0.5 37 6.1 E 15 19 8 10 1026.1 - 0.0
01/05:00pm 14.9 9.6 -0.4 35 6.5 E 17 22 9 12 1025.9 1025.4 0.0
01/04:30pm 15.6 10.3 -0.6 33 7.0 ESE 17 24 9 13 1025.7 - 0.0
01/04:00pm 15.9 10.6 -0.3 33 7.0 E 17 24 9 13 1025.5 1025.1 0.0
01/03:30pm 16.3 11.0 -0.4 32 7.3 ESE 17 24 9 13 1025.4 - 0.0
01/03:00pm 16.3 11.8 0.0 33 7.1 ESE 13 22 7 12 1025.5 1025.1 0.0
01/02:30pm 16.5 11.8 0.6 34 7.1 ESE 15 24 8 13 1025.7 - 0.0
01/02:00pm 15.7 10.2 0.3 35 6.7 E 19 26 10 14 1025.8 1025.3 0.0
01/01:30pm 15.6 10.2 1.0 37 6.5 E 19 24 10 13 1025.9 - 0.0
01/01:00pm 15.6 10.5 1.0 37 6.5 ESE 17 30 9 16 1026.3 1025.8 0.0
01/12:30pm 14.4 9.0 1.3 41 5.8 E 19 28 10 15 1026.9 - 0.0
01/12:00pm 14.4 9.9 2.0 43 5.5 E 15 26 8 14 1027.5 1027.1 0.0
01/11:30am 13.3 7.8 1.6 45 5.2 ENE 20 32 11 17 1028.0 - 0.0
01/11:00am 13.1 6.5 1.8 46 5.0 E 26 30 14 16 1028.4 1027.9 0.0
01/10:30am 12.2 5.9 1.8 49 4.6 E 24 33 13 18 1028.8 - 0.0
01/10:00am 11.4 4.0 1.6 51 4.2 E 30 39 16 21 1029.2 1028.8 0.0
01/09:30am 11.0 3.2 1.8 53 4.0 E 32 43 17 23 1029.2 - 0.0
01/09:00am 9.7 1.7 1.4 56 3.5 E 33 41 18 22 1028.9 1028.5 0.0
01/08:30am 8.8 1.0 1.5 60 3.1 E 32 44 17 24 1028.5 - 0.0
01/08:00am 7.6 0.6 1.7 66 2.5 E 28 39 15 21 1028.3 1027.8 0.0
01/07:30am 6.4 0.8 1.5 71 2.0 E 20 32 11 17 1028.2 - 0.0
01/07:00am 5.5 0.1 1.4 75 1.7 E 19 24 10 13 1028.1 1028.0 0.0
01/06:30am 5.4 -0.2 1.5 76 1.6 E 20 26 11 14 1027.7 - 0.0
01/06:00am 5.5 0.1 1.4 75 1.7 E 19 28 10 15 1027.3 1027.2 0.0
01/05:30am 5.9 0.3 1.4 73 1.8 E 20 26 11 14 1027.2 - 0.0
01/05:00am 6.2 0.3 1.5 72 1.9 ESE 22 32 12 17 1026.7 1026.6 0.0
01/04:30am 6.2 0.6 1.5 72 1.9 ESE 20 26 11 14 1026.6 - 0.0
01/04:00am 6.5 1.0 1.6 71 2.0 ESE 20 24 11 13 1026.6 1026.5 0.0
01/03:30am 6.8 1.3 1.7 70 2.1 ESE 20 28 11 15 1026.4 - 0.0
01/03:00am 7.1 1.8 1.8 69 2.2 ESE 19 24 10 13 1026.5 1026.4 0.0
01/02:30am 7.6 2.7 1.9 67 2.4 ESE 17 22 9 12 1026.5 - 0.0
01/02:00am 8.1 3.2 1.9 65 2.6 ESE 17 22 9 12 1026.4 1026.3 0.0
01/01:30am 8.6 3.3 2.0 63 2.8 ESE 19 24 10 13 1026.4 - 0.0
01/01:00am 9.0 4.5 2.1 62 2.9 ESE 15 20 8 11 1026.6 1026.5 0.0
01/12:30am 9.4 3.9 2.0 60 3.2 ESE 20 24 11 13 1026.4 - 0.0
01/12:00am 10.1 3.9 2.0 57 3.5 ESE 24 35 13 19 1026.2 1026.1 0.0
 
Date/Time
WST
Temp
°C
App
Temp
°C
Dew
Point
Rel
Hum
%
Delta-T
°C
Wind Press
QNH
hPa
Press
MSL
hPa
Rain
since 9 am
mm
Dir
 
Spd
km/h
Gust
km/h
Spd
kts
Gust
kts
31/11:30pm 10.4 4.5 1.5 54 3.8 SE 22 32 12 17 1026.0 - 0.0
31/11:00pm 10.6 5.2 1.2 52 4.0 SE 19 24 10 13 1026.0 1025.9 0.0
31/10:30pm 10.0 5.3 1.1 54 3.8 SE 15 20 8 11 1026.1 - 0.0
31/10:00pm 9.6 5.6 0.8 54 3.7 SE 11 13 6 7 1026.0 1025.9 0.0
31/09:30pm 10.7 6.8 1.0 51 4.1 SSE 11 15 6 8 1025.8 - 0.0
31/09:00pm 11.6 7.3 1.3 49 4.4 SSE 13 17 7 9 1025.5 1025.4 0.0
31/08:30pm 12.2 7.6 1.5 48 4.7 SSE 15 19 8 10 1025.1 - 0.0
31/08:00pm 11.8 7.6 1.7 50 4.4 SSE 13 17 7 9 1024.8 1024.7 0.0
31/07:30pm 12.3 8.6 2.2 50 4.5 S 11 13 6 7 1024.7 - 0.0
31/07:00pm 13.1 9.4 2.1 47 4.9 S 11 15 6 8 1024.2 1024.1 0.0
31/06:30pm 13.9 10.6 2.2 45 5.3 SSW 9 13 5 7 1023.8 - 0.0
31/06:00pm 14.7 11.3 1.9 42 5.7 SW 9 11 5 6 1023.6 1023.4 0.0
31/05:30pm 16.0 11.8 1.7 38 6.5 SSW 13 17 7 9 1023.4 - 0.0
31/05:00pm 17.1 12.6 1.9 36 7.0 SSW 15 22 8 12 1023.1 1023.0 0.0
31/04:30pm 17.6 13.5 2.4 36 7.1 SSW 13 20 7 11 1022.9 - 0.0
31/04:00pm 18.1 13.7 2.8 36 7.2 SSW 15 22 8 12 1022.7 1022.6 0.0
31/03:30pm 18.3 13.6 3.0 36 7.3 SSW 17 26 9 14 1022.6 - 0.0
31/03:00pm 17.8 13.0 2.5 36 7.1 S 17 28 9 15 1022.5 1022.4 0.0
31/02:30pm 18.0 13.4 3.5 38 6.9 S 17 24 9 13 1022.4 - 0.0
31/02:00pm 17.0 12.4 3.7 41 6.3 SSE 17 26 9 14 1022.5 1022.4 0.0
31/01:30pm 17.7 13.2 4.3 41 6.5 S 17 24 9 13 1022.8 - 0.0
31/01:00pm 16.3 11.5 4.7 46 5.6 S 19 24 10 13 1023.1 1023.0 0.0
31/12:30pm 16.4 11.8 5.4 48 5.4 S 19 24 10 13 1023.5 - 0.0
31/12:00pm 15.4 10.7 5.0 50 5.0 S 19 28 10 15 1024.0 1023.8 0.0
31/11:30am 14.9 10.1 5.7 54 4.5 S 20 28 11 15 1024.4 - 0.0
31/11:00am 14.2 9.4 5.6 56 4.2 SSW 20 30 11 16 1024.6 1024.5 0.0
31/10:30am 13.8 9.3 5.9 59 3.8 S 19 26 10 14 1024.7 - 0.0
31/10:00am 13.9 8.5 6.3 60 3.7 S 24 30 13 16 1024.7 1024.6 0.0
31/09:30am 13.7 8.6 5.8 59 3.8 S 22 30 12 16 1024.5 - 0.0
31/09:00am 13.0 8.3 6.1 63 3.3 S 20 28 11 15 1024.4 1024.3 0.0
31/08:30am 11.0 8.3 5.5 69 2.6 W 9 13 5 7 1024.1 - 0.0
31/08:00am 9.4 6.6 5.2 75 1.9 WNW 9 11 5 6 1023.9 1023.7 0.0
31/07:30am 6.8 4.2 3.4 79 1.5 NNW 6 7 3 4 1023.5 - 0.0
31/07:00am 4.4 2.7 1.8 83 1.1 CALM 0 0 0 0 1023.0 1022.9 0.0
31/06:30am 3.2 0.2 0.6 83 1.0 W 6 9 3 5 1022.8 - 0.0
31/06:00am 4.9 3.2 1.9 81 1.2 CALM 0 6 0 3 1022.5 1022.4 0.0
31/05:30am 5.5 2.7 3.3 86 0.9 WSW 7 9 4 5 1022.3 - 0.0
31/05:00am 5.6 2.4 3.1 84 1.1 WSW 9 11 5 6 1022.2 1022.0 0.0
31/04:30am 6.3 3.7 3.1 80 1.4 WSW 6 9 3 5 1022.1 - 0.0
31/04:00am 7.3 6.0 4.1 80 1.4 CALM 0 0 0 0 1022.0 1021.8 0.0
31/03:30am 8.4 7.2 4.4 76 1.8 CALM 0 0 0 0 1021.9 - 0.0
31/03:00am 9.2 7.2 4.6 73 2.1 SW 4 9 2 5 1022.1 1021.9 0.0
31/02:30am 10.0 7.7 4.8 70 2.4 SSW 6 7 3 4 1022.0 - 0.0
31/02:00am 10.9 8.1 5.0 67 2.7 SSW 9 13 5 7 1022.0 1021.8 0.0
31/01:30am 11.8 7.1 5.2 64 3.1 SSW 19 26 10 14 1022.3 - 0.0
31/01:00am 12.2 7.4 4.9 61 3.4 SSW 19 30 10 16 1022.2 1022.0 0.0
31/12:30am 12.5 7.9 3.5 54 4.1 SSW 17 24 9 13 1021.8 - 0.0
31/12:00am 12.9 8.4 1.9 47 4.9 SW 15 20 8 11 1021.7 1021.5 0.0
 
Date/Time
WST
Temp
°C
App
Temp
°C
Dew
Point
Rel
Hum
%
Delta-T
°C
Wind Press
QNH
hPa
Press
MSL
hPa
Rain
since 9 am
mm
Dir
 
Spd
km/h
Gust
km/h
Spd
kts
Gust
kts
30/11:30pm 8.9 6.6 0.6 56 3.4 NNW 2 17 1 9 1021.3 - 0.0
30/11:00pm 7.6 5.6 -0.4 57 3.2 CALM 0 0 0 0 1020.9 1020.8 0.0
30/10:30pm 8.1 6.1 -0.4 55 3.4 CALM 0 0 0 0 1020.9 - 0.0
30/10:00pm 9.7 7.7 0.1 51 4.0 CALM 0 0 0 0 1021.1 1020.9 0.0
30/09:30pm 10.2 6.5 0.0 49 4.2 N 9 9 5 5 1020.9 - 0.0
30/09:00pm 10.3 7.0 0.1 49 4.2 N 7 9 4 5 1020.8 1020.7 0.0
30/08:30pm 11.1 7.5 0.5 48 4.5 N 9 9 5 5 1020.6 - 0.0
30/08:00pm 11.8 9.9 0.3 45 4.9 CALM 0 6 0 3 1020.5 1020.4 0.0
30/07:30pm 12.6 9.5 0.0 42 5.3 W 6 7 3 4 1020.4 - 0.0
30/07:00pm 15.0 11.7 0.4 37 6.4 W 7 9 4 5 1020.4 1020.3 0.0
30/06:30pm 17.0 13.5 1.0 34 7.2 W 9 11 5 6 1020.3 - 0.0
30/06:00pm 18.3 14.8 1.3 32 7.8 W 9 11 5 6 1020.1 1019.9 0.0
30/05:30pm 20.1 15.9 1.5 29 8.7 W 13 15 7 8 1020.1 - 0.0
30/05:00pm 21.7 16.1 1.4 26 9.6 WNW 20 28 11 15 1020.1 1019.9 0.0
30/04:30pm 22.3 16.0 1.3 25 9.9 WNW 24 37 13 20 1019.9 - 0.0
30/04:00pm 23.1 16.8 1.4 24 10.3 WNW 24 32 13 17 1019.9 1019.7 0.0
30/03:30pm 23.2 17.3 1.5 24 10.4 W 22 37 12 20 1019.9 - 0.0
30/03:00pm 22.9 17.4 1.8 25 10.1 W 20 30 11 16 1020.0 1019.8 0.0
30/02:30pm 22.9 16.7 2.4 26 9.9 WNW 24 37 13 20 1020.2 - 0.0
30/02:00pm 22.9 16.7 2.4 26 9.9 WNW 24 35 13 19 1020.5 1020.4 0.0
30/01:30pm 22.7 17.3 2.2 26 9.9 WNW 20 35 11 19 1020.7 - 0.0
30/01:00pm 22.0 16.8 2.2 27 9.5 W 19 37 10 20 1021.2 1021.0 0.0
30/12:30pm 21.6 16.2 2.3 28 9.3 WNW 20 32 11 17 1021.7 - 0.0
30/12:00pm 20.9 16.1 2.7 30 8.7 NW 17 26 9 14 1022.2 1022.0 0.0
30/11:30am 20.3 15.9 2.6 31 8.5 NW 15 20 8 11 1023.0 - 0.0
30/11:00am 19.6 16.4 3.3 34 7.8 NW 9 19 5 10 1023.7 1023.5 0.0
30/10:30am 19.0 15.8 3.2 35 7.6 NNW 9 13 5 7 1024.3 - 0.0
30/10:00am 16.7 14.4 2.7 39 6.5 NW 4 7 2 4 1024.5 1024.4 0.0
30/09:30am 15.4 12.6 2.9 43 5.8 WNW 7 9 4 5 1024.7 - 0.0
30/09:00am 14.0 11.1 2.6 46 5.2 NW 7 9 4 5 1024.8 1024.7 0.0
30/08:30am 12.0 9.0 2.2 51 4.3 NW 7 9 4 5 1024.8 - 0.0
30/08:00am 9.2 7.4 1.4 58 3.3 CALM 0 6 0 3 1024.6 1024.5 0.0
30/07:30am 6.8 4.5 0.5 64 2.6 NW 2 6 1 3 1024.4 - 0.0
30/07:00am 4.0 1.8 -1.2 69 1.9 CALM 0 0 0 0 1024.1 1024.0 0.0
30/06:30am 4.2 2.1 -0.6 71 1.8 CALM 0 7 0 4 1023.8 - 0.0
30/06:00am 4.0 0.2 -0.6 72 1.7 ENE 9 11 5 6 1023.5 1023.3 0.0
30/05:30am 4.5 1.3 -0.5 70 1.9 ESE 6 7 3 4 1023.6 - 0.0
30/05:00am 4.7 1.5 -0.3 70 1.9 E 6 7 3 4 1023.2 1023.1 0.0
30/04:30am 4.5 1.3 -0.5 70 1.9 NE 6 7 3 4 1023.0 - 0.0
30/04:00am 4.6 1.2 -0.6 69 2.0 ENE 7 9 4 5 1022.8 1022.7 0.0
30/03:30am 5.2 1.4 -0.6 66 2.2 ENE 9 11 5 6 1022.9 - 0.0
30/03:00am 5.1 1.0 -0.5 67 2.2 E 11 13 6 7 1023.4 1023.2 0.0
30/02:30am 4.9 1.5 -0.9 66 2.2 E 7 9 4 5 1023.6 - 0.0
30/02:00am 5.8 2.4 -0.5 64 2.4 SE 7 9 4 5 1023.8 1023.6 0.0
30/01:30am 6.0 2.8 -0.5 63 2.5 NE 6 7 3 4 1024.0 - 0.0
30/01:00am 5.9 2.5 -0.6 63 2.5 NE 7 9 4 5 1024.3 1024.2 0.0
30/12:30am 6.0 2.6 -0.7 62 2.6 ENE 7 9 4 5 1024.3 - 0.0
30/12:00am 6.3 2.9 -0.4 62 2.6 ENE 7 9 4 5 1024.3 1024.2 0.0
 
Date/Time
WST
Temp
°C
App
Temp
°C
Dew
Point
Rel
Hum
%
Delta-T
°C
Wind Press
QNH
hPa
Press
MSL
hPa
Rain
since 9 am
mm
Dir
 
Spd
km/h
Gust
km/h
Spd
kts
Gust
kts
29/11:30pm 6.7 3.2 -1.0 58 3.0 E 7 7 4 4 1024.5 - 0.0
29/11:00pm 7.3 4.1 -0.2 59 3.0 NNE 6 7 3 4 1024.5 1024.4 0.0
29/10:30pm 7.4 3.7 -0.1 59 3.0 NNE 9 9 5 5 1024.6 - 0.0
29/10:00pm 8.0 6.1 0.3 58 3.1 CALM 0 0 0 0 1024.7 1024.6 0.0
29/09:30pm 8.8 6.4 0.0 54 3.6 N 2 11 1 6 1024.7 - 0.0
29/09:00pm 9.8 7.2 0.7 53 3.8 N 4 7 2 4 1024.8 1024.7 0.0
29/08:30pm 11.0 8.1 1.3 51 4.2 NW 6 7 3 4 1024.7 - 0.0
29/08:00pm 11.8 8.3 1.4 49 4.5 WNW 9 11 5 6 1024.6 1024.5 0.0
29/07:30pm 13.4 11.7 1.7 45 5.2 CALM 0 0 0 0 1024.4 - 0.0
29/07:00pm 14.8 12.3 1.7 41 5.9 W 4 9 2 5 1024.2 1024.1 0.0
29/06:30pm 15.5 13.8 1.6 39 6.3 CALM 0 0 0 0 1024.1 - 0.0

Other Formats:

Comma delimited format used in spreadsheet applications
http://www.bom.gov.au/fwo/IDW60801/IDW60801.94449.axf

JavaScript Object Notation format (JSON) in row-major order
http://www.bom.gov.au/fwo/IDW60801/IDW60801.94449.json